sensor_id;sensor_type;location;lat;lon;timestamp;P1;durP1;ratioP1;P2;durP2;ratioP2
7747;SDS011;3918;42.564;23.164;2023-10-19T04:02:06;13.55;;;12.85;;
7747;SDS011;3918;42.564;23.164;2023-10-19T04:04:38;13.88;;;13.10;;
7747;SDS011;3918;42.564;23.164;2023-10-19T04:07:09;13.63;;;12.93;;
7747;SDS011;3918;42.564;23.164;2023-10-19T04:09:43;13.10;;;12.45;;
7747;SDS011;3918;42.564;23.164;2023-10-19T04:12:25;13.88;;;13.07;;
7747;SDS011;3918;42.564;23.164;2023-10-19T04:14:54;13.85;;;13.15;;
7747;SDS011;3918;42.564;23.164;2023-10-19T04:17:22;14.48;;;13.77;;
7747;SDS011;3918;42.564;23.164;2023-10-19T04:19:50;13.98;;;13.27;;
7747;SDS011;3918;42.564;23.164;2023-10-19T04:22:18;13.90;;;13.20;;
7747;SDS011;3918;42.564;23.164;2023-10-19T04:24:48;13.65;;;12.95;;
7747;SDS011;3918;42.564;23.164;2023-10-19T04:27:15;15.63;;;14.63;;
7747;SDS011;3918;42.564;23.164;2023-10-19T04:29:42;15.60;;;14.68;;
7747;SDS011;3918;42.564;23.164;2023-10-19T04:32:10;14.88;;;14.18;;
7747;SDS011;3918;42.564;23.164;2023-10-19T04:34:40;15.80;;;14.90;;
7747;SDS011;3918;42.564;23.164;2023-10-19T04:37:07;18.13;;;17.15;;
7747;SDS011;3918;42.564;23.164;2023-10-19T04:39:37;16.83;;;15.77;;
7747;SDS011;3918;42.564;23.164;2023-10-19T04:42:04;16.02;;;15.23;;
7747;SDS011;3918;42.564;23.164;2023-10-19T04:44:31;17.95;;;16.88;;
7747;SDS011;3918;42.564;23.164;2023-10-19T04:46:59;19.00;;;17.90;;
7747;SDS011;3918;42.564;23.164;2023-10-19T04:49:26;18.77;;;17.48;;
7747;SDS011;3918;42.564;23.164;2023-10-19T04:51:55;18.33;;;17.23;;
7747;SDS011;3918;42.564;23.164;2023-10-19T04:54:21;20.55;;;19.20;;
7747;SDS011;3918;42.564;23.164;2023-10-19T04:56:48;15.90;;;15.10;;
7747;SDS011;3918;42.564;23.164;2023-10-19T04:59:17;16.90;;;15.82;;
7747;SDS011;3918;42.564;23.164;2023-10-19T05:01:44;16.00;;;14.90;;
7747;SDS011;3918;42.564;23.164;2023-10-19T05:04:11;15.80;;;14.70;;
7747;SDS011;3918;42.564;23.164;2023-10-19T05:06:38;15.63;;;14.52;;
7747;SDS011;3918;42.564;23.164;2023-10-19T05:09:06;16.20;;;15.18;;
7747;SDS011;3918;42.564;23.164;2023-10-19T05:11:34;15.45;;;14.27;;
7747;SDS011;3918;42.564;23.164;2023-10-19T05:14:00;14.38;;;13.57;;
7747;SDS011;3918;42.564;23.164;2023-10-19T05:16:29;16.27;;;15.27;;
7747;SDS011;3918;42.564;23.164;2023-10-19T05:18:56;16.75;;;15.52;;
7747;SDS011;3918;42.564;23.164;2023-10-19T05:21:22;13.48;;;12.48;;
7747;SDS011;3918;42.564;23.164;2023-10-19T05:23:49;13.95;;;13.15;;
7747;SDS011;3918;42.564;23.164;2023-10-19T05:26:17;12.90;;;12.00;;
7747;SDS011;3918;42.564;23.164;2023-10-19T05:28:44;12.48;;;11.57;;
7747;SDS011;3918;42.564;23.164;2023-10-19T05:31:12;11.38;;;10.55;;
7747;SDS011;3918;42.564;23.164;2023-10-19T05:33:40;10.70;;;9.73;;
7747;SDS011;3918;42.564;23.164;2023-10-19T05:36:07;9.98;;;9.35;;
7747;SDS011;3918;42.564;23.164;2023-10-19T05:38:34;9.23;;;8.70;;
7747;SDS011;3918;42.564;23.164;2023-10-19T05:41:00;9.45;;;8.75;;
7747;SDS011;3918;42.564;23.164;2023-10-19T05:43:29;7.05;;;6.75;;
7747;SDS011;3918;42.564;23.164;2023-10-19T05:45:56;7.22;;;6.82;;
7747;SDS011;3918;42.564;23.164;2023-10-19T05:48:23;8.52;;;7.85;;
7747;SDS011;3918;42.564;23.164;2023-10-19T05:50:50;7.93;;;7.45;;
7747;SDS011;3918;42.564;23.164;2023-10-19T05:53:17;6.25;;;5.75;;
7747;SDS011;3918;42.564;23.164;2023-10-19T05:55:44;5.40;;;4.90;;
7747;SDS011;3918;42.564;23.164;2023-10-19T05:58:11;5.22;;;3.45;;
7747;SDS011;3918;42.564;23.164;2023-10-19T06:00:39;4.80;;;3.20;;
7747;SDS011;3918;42.564;23.164;2023-10-19T06:03:06;3.78;;;3.38;;
7747;SDS011;3918;42.564;23.164;2023-10-19T06:05:32;3.35;;;3.15;;
7747;SDS011;3918;42.564;23.164;2023-10-19T06:07:59;4.13;;;3.72;;
7747;SDS011;3918;42.564;23.164;2023-10-19T06:10:29;3.17;;;2.97;;
7747;SDS011;3918;42.564;23.164;2023-10-19T06:12:55;4.05;;;3.75;;
7747;SDS011;3918;42.564;23.164;2023-10-19T06:15:23;3.55;;;3.28;;
7747;SDS011;3918;42.564;23.164;2023-10-19T06:17:52;3.33;;;3.10;;
7747;SDS011;3918;42.564;23.164;2023-10-19T06:20:18;3.67;;;3.38;;
7747;SDS011;3918;42.564;23.164;2023-10-19T06:22:55;3.38;;;3.17;;
7747;SDS011;3918;42.564;23.164;2023-10-19T06:25:29;5.32;;;2.97;;
7747;SDS011;3918;42.564;23.164;2023-10-19T06:27:56;3.47;;;3.28;;
7747;SDS011;3918;42.564;23.164;2023-10-19T06:30:25;2.88;;;2.67;;
7747;SDS011;3918;42.564;23.164;2023-10-19T06:32:54;3.42;;;3.20;;
7747;SDS011;3918;42.564;23.164;2023-10-19T06:35:22;3.45;;;3.25;;
7747;SDS011;3918;42.564;23.164;2023-10-19T06:37:49;3.53;;;3.22;;
7747;SDS011;3918;42.564;23.164;2023-10-19T06:40:16;3.53;;;3.10;;
7747;SDS011;3918;42.564;23.164;2023-10-19T06:42:43;3.45;;;3.15;;
7747;SDS011;3918;42.564;23.164;2023-10-19T06:45:11;3.30;;;3.10;;
7747;SDS011;3918;42.564;23.164;2023-10-19T06:47:40;3.35;;;3.00;;
7747;SDS011;3918;42.564;23.164;2023-10-19T06:50:09;2.45;;;2.35;;
7747;SDS011;3918;42.564;23.164;2023-10-19T06:52:41;2.58;;;2.47;;
7747;SDS011;3918;42.564;23.164;2023-10-19T06:55:08;2.75;;;2.65;;
7747;SDS011;3918;42.564;23.164;2023-10-19T06:57:38;2.83;;;2.65;;
7747;SDS011;3918;42.564;23.164;2023-10-19T07:00:08;2.47;;;2.28;;
7747;SDS011;3918;42.564;23.164;2023-10-19T07:02:39;2.15;;;2.05;;
7747;SDS011;3918;42.564;23.164;2023-10-19T07:05:09;2.15;;;2.05;;
7747;SDS011;3918;42.564;23.164;2023-10-19T07:07:36;3.15;;;2.00;;
7747;SDS011;3918;42.564;23.164;2023-10-19T07:10:05;3.63;;;1.80;;
7747;SDS011;3918;42.564;23.164;2023-10-19T07:12:33;2.08;;;1.98;;
7747;SDS011;3918;42.564;23.164;2023-10-19T07:15:00;2.10;;;2.00;;
7747;SDS011;3918;42.564;23.164;2023-10-19T07:17:28;1.90;;;1.80;;
7747;SDS011;3918;42.564;23.164;2023-10-19T07:19:55;1.75;;;1.65;;
7747;SDS011;3918;42.564;23.164;2023-10-19T07:22:23;1.50;;;1.40;;
7747;SDS011;3918;42.564;23.164;2023-10-19T07:24:50;2.08;;;1.80;;
7747;SDS011;3918;42.564;23.164;2023-10-19T07:27:17;1.88;;;1.77;;
7747;SDS011;3918;42.564;23.164;2023-10-19T07:29:44;1.70;;;1.60;;
7747;SDS011;3918;42.564;23.164;2023-10-19T07:32:12;1.58;;;1.48;;
7747;SDS011;3918;42.564;23.164;2023-10-19T07:34:41;4.53;;;2.00;;
7747;SDS011;3918;42.564;23.164;2023-10-19T07:37:09;1.85;;;1.75;;
7747;SDS011;3918;42.564;23.164;2023-10-19T07:39:41;1.73;;;1.63;;
7747;SDS011;3918;42.564;23.164;2023-10-19T07:42:11;1.83;;;1.73;;
7747;SDS011;3918;42.564;23.164;2023-10-19T07:44:37;2.13;;;2.03;;
7747;SDS011;3918;42.564;23.164;2023-10-19T07:47:04;2.00;;;1.90;;
7747;SDS011;3918;42.564;23.164;2023-10-19T07:49:34;1.80;;;1.70;;
7747;SDS011;3918;42.564;23.164;2023-10-19T07:52:03;2.25;;;2.13;;
7747;SDS011;3918;42.564;23.164;2023-10-19T07:54:33;3.08;;;1.80;;
7747;SDS011;3918;42.564;23.164;2023-10-19T07:57:01;2.35;;;2.17;;
7747;SDS011;3918;42.564;23.164;2023-10-19T07:59:31;2.58;;;2.05;;
7747;SDS011;3918;42.564;23.164;2023-10-19T08:01:57;2.38;;;2.28;;
7747;SDS011;3918;42.564;23.164;2023-10-19T08:04:26;2.22;;;2.13;;
7747;SDS011;3918;42.564;23.164;2023-10-19T08:06:53;2.47;;;2.28;;
7747;SDS011;3918;42.564;23.164;2023-10-19T08:09:20;2.58;;;2.40;;
7747;SDS011;3918;42.564;23.164;2023-10-19T08:11:49;2.13;;;2.03;;
7747;SDS011;3918;42.564;23.164;2023-10-19T08:14:21;1.90;;;1.80;;
7747;SDS011;3918;42.564;23.164;2023-10-19T08:16:49;2.17;;;2.08;;
7747;SDS011;3918;42.564;23.164;2023-10-19T08:19:16;1.48;;;1.42;;
7747;SDS011;3918;42.564;23.164;2023-10-19T08:21:44;1.92;;;1.83;;
7747;SDS011;3918;42.564;23.164;2023-10-19T08:24:11;2.53;;;1.75;;
7747;SDS011;3918;42.564;23.164;2023-10-19T08:26:43;1.95;;;1.85;;
7747;SDS011;3918;42.564;23.164;2023-10-19T08:29:10;1.90;;;1.80;;
7747;SDS011;3918;42.564;23.164;2023-10-19T08:31:40;2.25;;;2.05;;
7747;SDS011;3918;42.564;23.164;2023-10-19T08:34:07;1.80;;;1.70;;
7747;SDS011;3918;42.564;23.164;2023-10-19T08:36:36;2.13;;;2.03;;
7747;SDS011;3918;42.564;23.164;2023-10-19T08:39:04;2.05;;;1.95;;
7747;SDS011;3918;42.564;23.164;2023-10-19T08:41:31;2.30;;;2.15;;
7747;SDS011;3918;42.564;23.164;2023-10-19T08:44:00;1.90;;;1.80;;
7747;SDS011;3918;42.564;23.164;2023-10-19T08:46:27;2.20;;;2.00;;
7747;SDS011;3918;42.564;23.164;2023-10-19T08:48:55;2.10;;;1.73;;
7747;SDS011;3918;42.564;23.164;2023-10-19T08:51:24;2.50;;;2.30;;
7747;SDS011;3918;42.564;23.164;2023-10-19T08:53:52;2.38;;;2.00;;
7747;SDS011;3918;42.564;23.164;2023-10-19T08:56:20;2.33;;;2.22;;
7747;SDS011;3918;42.564;23.164;2023-10-19T08:58:48;3.00;;;2.20;;
7747;SDS011;3918;42.564;23.164;2023-10-19T09:01:17;2.35;;;2.25;;
7747;SDS011;3918;42.564;23.164;2023-10-19T09:03:45;2.30;;;2.13;;
7747;SDS011;3918;42.564;23.164;2023-10-19T09:06:13;3.60;;;2.47;;
7747;SDS011;3918;42.564;23.164;2023-10-19T09:08:40;3.28;;;2.70;;
7747;SDS011;3918;42.564;23.164;2023-10-19T09:11:07;2.72;;;2.53;;
7747;SDS011;3918;42.564;23.164;2023-10-19T09:13:43;2.78;;;2.40;;
7747;SDS011;3918;42.564;23.164;2023-10-19T09:16:12;3.08;;;2.10;;
7747;SDS011;3918;42.564;23.164;2023-10-19T09:18:40;1.80;;;1.70;;
7747;SDS011;3918;42.564;23.164;2023-10-19T09:21:07;3.58;;;2.55;;
7747;SDS011;3918;42.564;23.164;2023-10-19T09:23:38;3.78;;;2.50;;
7747;SDS011;3918;42.564;23.164;2023-10-19T09:26:05;2.30;;;2.17;;
7747;SDS011;3918;42.564;23.164;2023-10-19T09:28:34;3.67;;;2.40;;
7747;SDS011;3918;42.564;23.164;2023-10-19T09:31:02;4.18;;;2.33;;
7747;SDS011;3918;42.564;23.164;2023-10-19T09:33:30;3.50;;;2.60;;
7747;SDS011;3918;42.564;23.164;2023-10-19T09:35:59;3.13;;;2.60;;
7747;SDS011;3918;42.564;23.164;2023-10-19T09:38:27;5.72;;;2.60;;
7747;SDS011;3918;42.564;23.164;2023-10-19T09:40:55;3.75;;;2.65;;
7747;SDS011;3918;42.564;23.164;2023-10-19T09:43:30;3.45;;;2.30;;
7747;SDS011;3918;42.564;23.164;2023-10-19T09:46:00;3.08;;;2.25;;
7747;SDS011;3918;42.564;23.164;2023-10-19T09:48:28;1.85;;;1.75;;
7747;SDS011;3918;42.564;23.164;2023-10-19T09:50:55;2.40;;;2.20;;
7747;SDS011;3918;42.564;23.164;2023-10-19T09:53:23;2.03;;;1.92;;
7747;SDS011;3918;42.564;23.164;2023-10-19T09:55:53;2.17;;;2.08;;
7747;SDS011;3918;42.564;23.164;2023-10-19T09:58:24;2.50;;;2.30;;
7747;SDS011;3918;42.564;23.164;2023-10-19T10:00:55;2.95;;;2.13;;
7747;SDS011;3918;42.564;23.164;2023-10-19T10:03:42;2.17;;;2.00;;
7747;SDS011;3918;42.564;23.164;2023-10-19T10:06:10;2.38;;;2.08;;
7747;SDS011;3918;42.564;23.164;2023-10-19T10:08:39;2.13;;;2.03;;
7747;SDS011;3918;42.564;23.164;2023-10-19T10:11:16;2.08;;;1.98;;
7747;SDS011;3918;42.564;23.164;2023-10-19T10:13:44;6.18;;;2.13;;
7747;SDS011;3918;42.564;23.164;2023-10-19T10:16:16;2.65;;;2.45;;
7747;SDS011;3918;42.564;23.164;2023-10-19T10:18:43;2.08;;;1.98;;
7747;SDS011;3918;42.564;23.164;2023-10-19T10:21:14;3.47;;;2.20;;
7747;SDS011;3918;42.564;23.164;2023-10-19T10:23:42;2.40;;;2.17;;
7747;SDS011;3918;42.564;23.164;2023-10-19T10:26:10;2.83;;;1.98;;
7747;SDS011;3918;42.564;23.164;2023-10-19T10:28:40;3.58;;;2.35;;
7747;SDS011;3918;42.564;23.164;2023-10-19T10:31:15;2.72;;;2.53;;
7747;SDS011;3918;42.564;23.164;2023-10-19T10:33:46;1.75;;;1.65;;
7747;SDS011;3918;42.564;23.164;2023-10-19T10:36:15;2.50;;;2.40;;
7747;SDS011;3918;42.564;23.164;2023-10-19T10:38:43;2.55;;;2.35;;
7747;SDS011;3918;42.564;23.164;2023-10-19T10:41:11;2.83;;;2.63;;
7747;SDS011;3918;42.564;23.164;2023-10-19T10:43:49;2.60;;;2.40;;
7747;SDS011;3918;42.564;23.164;2023-10-19T10:46:18;2.58;;;2.47;;
7747;SDS011;3918;42.564;23.164;2023-10-19T10:48:46;2.13;;;2.03;;
7747;SDS011;3918;42.564;23.164;2023-10-19T10:51:17;3.15;;;2.00;;
7747;SDS011;3918;42.564;23.164;2023-10-19T10:53:47;2.80;;;2.25;;
7747;SDS011;3918;42.564;23.164;2023-10-19T10:56:15;2.53;;;2.17;;
7747;SDS011;3918;42.564;23.164;2023-10-19T10:58:42;2.38;;;2.28;;
7747;SDS011;3918;42.564;23.164;2023-10-19T11:01:11;8.18;;;2.28;;
7747;SDS011;3918;42.564;23.164;2023-10-19T11:03:38;1.95;;;1.85;;
7747;SDS011;3918;42.564;23.164;2023-10-19T11:06:05;4.10;;;2.38;;
7747;SDS011;3918;42.564;23.164;2023-10-19T11:08:34;2.85;;;2.40;;
7747;SDS011;3918;42.564;23.164;2023-10-19T11:11:02;3.38;;;2.67;;
7747;SDS011;3918;42.564;23.164;2023-10-19T11:13:31;10.00;;;2.45;;
7747;SDS011;3918;42.564;23.164;2023-10-19T11:16:03;3.78;;;2.58;;
7747;SDS011;3918;42.564;23.164;2023-10-19T11:18:33;2.90;;;2.63;;
7747;SDS011;3918;42.564;23.164;2023-10-19T11:21:02;3.22;;;2.70;;
7747;SDS011;3918;42.564;23.164;2023-10-19T11:23:38;2.35;;;2.13;;
7747;SDS011;3918;42.564;23.164;2023-10-19T11:26:07;3.38;;;2.45;;
7747;SDS011;3918;42.564;23.164;2023-10-19T11:28:35;2.35;;;2.15;;
7747;SDS011;3918;42.564;23.164;2023-10-19T11:31:11;2.08;;;1.98;;
7747;SDS011;3918;42.564;23.164;2023-10-19T11:33:43;9.40;;;2.30;;
7747;SDS011;3918;42.564;23.164;2023-10-19T11:36:11;3.50;;;1.90;;
7747;SDS011;3918;42.564;23.164;2023-10-19T11:38:41;5.13;;;1.63;;
7747;SDS011;3918;42.564;23.164;2023-10-19T11:41:09;1.65;;;1.58;;
7747;SDS011;3918;42.564;23.164;2023-10-19T11:43:38;5.32;;;2.10;;
7747;SDS011;3918;42.564;23.164;2023-10-19T11:46:05;2.50;;;1.92;;
7747;SDS011;3918;42.564;23.164;2023-10-19T11:48:32;2.25;;;1.65;;
7747;SDS011;3918;42.564;23.164;2023-10-19T11:51:02;2.13;;;1.90;;
7747;SDS011;3918;42.564;23.164;2023-10-19T11:53:31;1.88;;;1.75;;
7747;SDS011;3918;42.564;23.164;2023-10-19T11:55:59;5.30;;;1.95;;
7747;SDS011;3918;42.564;23.164;2023-10-19T11:58:29;2.45;;;1.90;;
7747;SDS011;3918;42.564;23.164;2023-10-19T12:00:57;3.08;;;2.17;;
7747;SDS011;3918;42.564;23.164;2023-10-19T12:03:24;2.15;;;1.98;;
7747;SDS011;3918;42.564;23.164;2023-10-19T12:05:51;2.03;;;1.92;;
7747;SDS011;3918;42.564;23.164;2023-10-19T12:08:21;2.63;;;2.33;;
7747;SDS011;3918;42.564;23.164;2023-10-19T12:10:49;6.00;;;2.20;;
7747;SDS011;3918;42.564;23.164;2023-10-19T12:13:17;1.85;;;1.60;;
7747;SDS011;3918;42.564;23.164;2023-10-19T12:15:43;3.33;;;2.20;;
7747;SDS011;3918;42.564;23.164;2023-10-19T12:18:16;2.30;;;1.80;;
7747;SDS011;3918;42.564;23.164;2023-10-19T12:20:44;2.45;;;1.98;;
7747;SDS011;3918;42.564;23.164;2023-10-19T12:23:11;2.33;;;2.13;;
7747;SDS011;3918;42.564;23.164;2023-10-19T12:25:39;5.85;;;1.98;;
7747;SDS011;3918;42.564;23.164;2023-10-19T12:28:07;3.00;;;2.15;;
7747;SDS011;3918;42.564;23.164;2023-10-19T12:30:38;1.92;;;1.45;;
7747;SDS011;3918;42.564;23.164;2023-10-19T12:33:06;2.33;;;2.13;;
7747;SDS011;3918;42.564;23.164;2023-10-19T12:35:36;2.10;;;1.60;;
7747;SDS011;3918;42.564;23.164;2023-10-19T12:38:11;4.32;;;1.98;;
7747;SDS011;3918;42.564;23.164;2023-10-19T12:40:46;2.10;;;1.90;;
7747;SDS011;3918;42.564;23.164;2023-10-19T12:43:15;2.28;;;2.10;;
7747;SDS011;3918;42.564;23.164;2023-10-19T12:45:43;3.03;;;1.85;;
7747;SDS011;3918;42.564;23.164;2023-10-19T12:48:15;5.82;;;1.90;;
7747;SDS011;3918;42.564;23.164;2023-10-19T12:50:43;5.97;;;2.30;;
7747;SDS011;3918;42.564;23.164;2023-10-19T12:53:10;8.95;;;2.35;;
7747;SDS011;3918;42.564;23.164;2023-10-19T12:55:36;3.35;;;1.83;;
7747;SDS011;3918;42.564;23.164;2023-10-19T12:58:05;3.78;;;2.10;;
7747;SDS011;3918;42.564;23.164;2023-10-19T13:00:36;3.42;;;2.03;;
7747;SDS011;3918;42.564;23.164;2023-10-19T13:03:09;7.18;;;2.10;;
7747;SDS011;3918;42.564;23.164;2023-10-19T13:05:38;4.40;;;1.90;;
7747;SDS011;3918;42.564;23.164;2023-10-19T13:08:06;3.22;;;1.80;;
7747;SDS011;3918;42.564;23.164;2023-10-19T13:10:35;2.55;;;1.90;;
7747;SDS011;3918;42.564;23.164;2023-10-19T13:13:07;3.65;;;1.90;;
7747;SDS011;3918;42.564;23.164;2023-10-19T13:15:37;3.92;;;1.80;;
7747;SDS011;3918;42.564;23.164;2023-10-19T13:18:05;1.55;;;1.40;;
7747;SDS011;3918;42.564;23.164;2023-10-19T13:20:35;3.17;;;2.10;;
7747;SDS011;3918;42.564;23.164;2023-10-19T13:23:03;3.45;;;1.92;;
7747;SDS011;3918;42.564;23.164;2023-10-19T13:25:32;2.13;;;2.03;;
7747;SDS011;3918;42.564;23.164;2023-10-19T13:28:11;1.52;;;1.42;;
7747;SDS011;3918;42.564;23.164;2023-10-19T13:30:38;1.70;;;1.60;;
7747;SDS011;3918;42.564;23.164;2023-10-19T13:33:07;3.30;;;3.05;;
7747;SDS011;3918;42.564;23.164;2023-10-19T13:35:35;2.60;;;1.70;;
7747;SDS011;3918;42.564;23.164;2023-10-19T13:38:03;2.80;;;1.63;;
7747;SDS011;3918;42.564;23.164;2023-10-19T13:40:31;3.40;;;1.83;;
7747;SDS011;3918;42.564;23.164;2023-10-19T13:42:58;3.38;;;1.73;;
7747;SDS011;3918;42.564;23.164;2023-10-19T13:45:26;7.00;;;2.30;;
7747;SDS011;3918;42.564;23.164;2023-10-19T13:47:55;14.77;;;2.30;;
7747;SDS011;3918;42.564;23.164;2023-10-19T13:50:22;5.47;;;2.38;;
7747;SDS011;3918;42.564;23.164;2023-10-19T13:52:51;5.53;;;2.30;;
7747;SDS011;3918;42.564;23.164;2023-10-19T13:55:19;5.97;;;2.28;;
7747;SDS011;3918;42.564;23.164;2023-10-19T13:57:46;2.45;;;1.98;;
7747;SDS011;3918;42.564;23.164;2023-10-19T14:00:14;18.83;;;2.20;;
7747;SDS011;3918;42.564;23.164;2023-10-19T14:02:50;6.65;;;1.80;;
7747;SDS011;3918;42.564;23.164;2023-10-19T14:05:17;4.88;;;1.90;;
7747;SDS011;3918;42.564;23.164;2023-10-19T14:07:47;2.42;;;1.85;;
7747;SDS011;3918;42.564;23.164;2023-10-19T14:10:13;2.30;;;2.10;;
7747;SDS011;3918;42.564;23.164;2023-10-19T14:12:41;2.88;;;2.20;;
7747;SDS011;3918;42.564;23.164;2023-10-19T14:15:11;2.53;;;2.10;;
7747;SDS011;3918;42.564;23.164;2023-10-19T14:17:40;4.45;;;2.63;;
7747;SDS011;3918;42.564;23.164;2023-10-19T14:20:08;6.18;;;2.40;;
7747;SDS011;3918;42.564;23.164;2023-10-19T14:22:39;6.57;;;2.50;;
7747;SDS011;3918;42.564;23.164;2023-10-19T14:25:06;6.18;;;2.40;;
7747;SDS011;3918;42.564;23.164;2023-10-19T14:27:37;5.03;;;2.30;;
7747;SDS011;3918;42.564;23.164;2023-10-19T14:30:06;5.45;;;2.50;;
7747;SDS011;3918;42.564;23.164;2023-10-19T14:32:35;2.58;;;2.38;;
7747;SDS011;3918;42.564;23.164;2023-10-19T14:35:02;9.57;;;2.53;;
7747;SDS011;3918;42.564;23.164;2023-10-19T14:37:32;2.08;;;1.90;;
7747;SDS011;3918;42.564;23.164;2023-10-19T14:39:59;2.55;;;2.25;;
7747;SDS011;3918;42.564;23.164;2023-10-19T14:42:26;2.30;;;1.75;;
7747;SDS011;3918;42.564;23.164;2023-10-19T14:44:55;3.55;;;2.10;;
7747;SDS011;3918;42.564;23.164;2023-10-19T14:47:22;3.72;;;2.03;;
7747;SDS011;3918;42.564;23.164;2023-10-19T14:49:49;1.85;;;1.75;;
7747;SDS011;3918;42.564;23.164;2023-10-19T14:52:17;2.22;;;2.13;;
7747;SDS011;3918;42.564;23.164;2023-10-19T14:54:48;2.60;;;2.00;;
7747;SDS011;3918;42.564;23.164;2023-10-19T14:57:16;2.10;;;2.00;;
7747;SDS011;3918;42.564;23.164;2023-10-19T14:59:42;3.00;;;2.05;;
7747;SDS011;3918;42.564;23.164;2023-10-19T15:02:09;2.55;;;2.35;;
7747;SDS011;3918;42.564;23.164;2023-10-19T15:04:38;2.40;;;2.13;;
7747;SDS011;3918;42.564;23.164;2023-10-19T15:07:05;3.45;;;2.05;;
7747;SDS011;3918;42.564;23.164;2023-10-19T15:09:31;2.65;;;1.98;;
7747;SDS011;3918;42.564;23.164;2023-10-19T15:11:59;5.07;;;2.10;;
7747;SDS011;3918;42.564;23.164;2023-10-19T15:14:28;5.15;;;1.92;;
7747;SDS011;3918;42.564;23.164;2023-10-19T15:16:54;3.30;;;2.15;;
7747;SDS011;3918;42.564;23.164;2023-10-19T15:19:21;2.40;;;2.20;;
7747;SDS011;3918;42.564;23.164;2023-10-19T15:21:49;4.72;;;2.53;;
7747;SDS011;3918;42.564;23.164;2023-10-19T15:24:16;2.28;;;2.10;;
7747;SDS011;3918;42.564;23.164;2023-10-19T15:26:43;2.92;;;2.20;;
7747;SDS011;3918;42.564;23.164;2023-10-19T15:29:11;2.80;;;2.60;;
7747;SDS011;3918;42.564;23.164;2023-10-19T15:31:38;3.47;;;1.80;;
7747;SDS011;3918;42.564;23.164;2023-10-19T15:34:05;4.80;;;2.30;;
7747;SDS011;3918;42.564;23.164;2023-10-19T15:36:32;3.22;;;2.00;;
7747;SDS011;3918;42.564;23.164;2023-10-19T15:38:59;7.57;;;2.20;;
7747;SDS011;3918;42.564;23.164;2023-10-19T15:41:26;4.78;;;3.03;;
7747;SDS011;3918;42.564;23.164;2023-10-19T15:43:52;6.45;;;5.10;;
7747;SDS011;3918;42.564;23.164;2023-10-19T15:46:21;2.60;;;2.30;;
7747;SDS011;3918;42.564;23.164;2023-10-19T15:48:50;2.35;;;2.20;;
7747;SDS011;3918;42.564;23.164;2023-10-19T15:51:16;4.53;;;2.13;;
7747;SDS011;3918;42.564;23.164;2023-10-19T15:53:43;4.00;;;2.30;;
7747;SDS011;3918;42.564;23.164;2023-10-19T15:56:10;2.88;;;2.67;;
7747;SDS011;3918;42.564;23.164;2023-10-19T15:58:38;3.30;;;2.38;;
7747;SDS011;3918;42.564;23.164;2023-10-19T16:01:05;2.33;;;2.22;;
7747;SDS011;3918;42.564;23.164;2023-10-19T16:03:33;2.03;;;1.92;;
7747;SDS011;3918;42.564;23.164;2023-10-19T16:06:00;2.20;;;2.10;;
7747;SDS011;3918;42.564;23.164;2023-10-19T16:08:27;3.70;;;2.30;;
7747;SDS011;3918;42.564;23.164;2023-10-19T16:10:54;2.50;;;2.30;;
7747;SDS011;3918;42.564;23.164;2023-10-19T16:13:20;4.22;;;2.17;;
7747;SDS011;3918;42.564;23.164;2023-10-19T16:15:47;2.10;;;2.00;;
7747;SDS011;3918;42.564;23.164;2023-10-19T16:18:14;2.10;;;2.00;;
7747;SDS011;3918;42.564;23.164;2023-10-19T16:20:42;2.03;;;1.92;;
7747;SDS011;3918;42.564;23.164;2023-10-19T16:23:09;2.17;;;2.08;;
7747;SDS011;3918;42.564;23.164;2023-10-19T16:25:36;3.72;;;3.42;;
7747;SDS011;3918;42.564;23.164;2023-10-19T16:28:03;3.42;;;3.13;;
7747;SDS011;3918;42.564;23.164;2023-10-19T16:30:30;2.28;;;2.17;;
7747;SDS011;3918;42.564;23.164;2023-10-19T16:32:58;2.20;;;1.92;;
7747;SDS011;3918;42.564;23.164;2023-10-19T16:35:25;3.00;;;2.75;;
7747;SDS011;3918;42.564;23.164;2023-10-19T16:37:55;2.00;;;1.90;;
7747;SDS011;3918;42.564;23.164;2023-10-19T16:40:22;1.52;;;1.42;;
7747;SDS011;3918;42.564;23.164;2023-10-19T16:42:50;1.98;;;1.80;;
7747;SDS011;3918;42.564;23.164;2023-10-19T16:45:17;2.13;;;2.03;;
7747;SDS011;3918;42.564;23.164;2023-10-19T16:47:44;1.90;;;1.80;;
7747;SDS011;3918;42.564;23.164;2023-10-19T16:50:10;3.58;;;2.88;;
7747;SDS011;3918;42.564;23.164;2023-10-19T16:52:39;2.78;;;2.20;;
7747;SDS011;3918;42.564;23.164;2023-10-19T16:55:08;2.70;;;2.50;;
7747;SDS011;3918;42.564;23.164;2023-10-19T16:57:35;2.45;;;2.35;;
7747;SDS011;3918;42.564;23.164;2023-10-19T17:00:02;2.42;;;2.10;;
7747;SDS011;3918;42.564;23.164;2023-10-19T17:02:30;2.28;;;2.17;;
7747;SDS011;3918;42.564;23.164;2023-10-19T17:04:58;2.00;;;1.90;;
7747;SDS011;3918;42.564;23.164;2023-10-19T17:07:25;2.55;;;1.88;;
7747;SDS011;3918;42.564;23.164;2023-10-19T17:09:52;2.60;;;2.40;;
7747;SDS011;3918;42.564;23.164;2023-10-19T17:12:22;2.13;;;2.03;;
7747;SDS011;3918;42.564;23.164;2023-10-19T17:14:48;5.03;;;1.98;;
7747;SDS011;3918;42.564;23.164;2023-10-19T17:17:16;2.63;;;2.13;;
7747;SDS011;3918;42.564;23.164;2023-10-19T17:19:43;2.13;;;2.03;;
7747;SDS011;3918;42.564;23.164;2023-10-19T17:22:11;2.40;;;2.30;;
7747;SDS011;3918;42.564;23.164;2023-10-19T17:24:38;6.50;;;3.30;;
7747;SDS011;3918;42.564;23.164;2023-10-19T17:27:04;3.72;;;3.05;;
7747;SDS011;3918;42.564;23.164;2023-10-19T17:29:34;2.90;;;2.70;;
7747;SDS011;3918;42.564;23.164;2023-10-19T17:32:00;3.55;;;3.30;;
7747;SDS011;3918;42.564;23.164;2023-10-19T17:34:27;3.60;;;2.85;;
7747;SDS011;3918;42.564;23.164;2023-10-19T17:36:54;2.70;;;2.50;;
7747;SDS011;3918;42.564;23.164;2023-10-19T17:39:21;3.28;;;3.08;;
7747;SDS011;3918;42.564;23.164;2023-10-19T17:41:48;3.40;;;3.10;;
7747;SDS011;3918;42.564;23.164;2023-10-19T17:44:15;4.57;;;2.95;;
7747;SDS011;3918;42.564;23.164;2023-10-19T17:46:44;3.28;;;3.05;;
7747;SDS011;3918;42.564;23.164;2023-10-19T17:49:11;3.20;;;3.00;;
7747;SDS011;3918;42.564;23.164;2023-10-19T17:51:40;3.20;;;3.00;;
7747;SDS011;3918;42.564;23.164;2023-10-19T17:54:07;3.30;;;3.00;;
7747;SDS011;3918;42.564;23.164;2023-10-19T17:56:34;3.45;;;3.17;;
7747;SDS011;3918;42.564;23.164;2023-10-19T17:59:01;4.47;;;3.25;;
7747;SDS011;3918;42.564;23.164;2023-10-19T18:01:28;3.10;;;2.90;;
7747;SDS011;3918;42.564;23.164;2023-10-19T18:03:57;2.88;;;2.78;;
7747;SDS011;3918;42.564;23.164;2023-10-19T18:06:24;3.28;;;3.00;;
7747;SDS011;3918;42.564;23.164;2023-10-19T18:08:51;3.97;;;2.80;;
7747;SDS011;3918;42.564;23.164;2023-10-19T18:11:18;3.47;;;3.20;;
7747;SDS011;3918;42.564;23.164;2023-10-19T18:13:45;2.58;;;2.40;;
7747;SDS011;3918;42.564;23.164;2023-10-19T18:16:12;4.68;;;2.45;;
7747;SDS011;3918;42.564;23.164;2023-10-19T18:18:40;4.45;;;2.05;;
7747;SDS011;3918;42.564;23.164;2023-10-19T18:21:12;2.35;;;2.17;;
7747;SDS011;3918;42.564;23.164;2023-10-19T18:23:39;2.65;;;2.40;;
7747;SDS011;3918;42.564;23.164;2023-10-19T18:26:06;2.50;;;2.20;;
7747;SDS011;3918;42.564;23.164;2023-10-19T18:28:33;2.55;;;2.35;;
7747;SDS011;3918;42.564;23.164;2023-10-19T18:31:00;2.40;;;2.30;;
7747;SDS011;3918;42.564;23.164;2023-10-19T18:33:27;2.67;;;2.58;;
7747;SDS011;3918;42.564;23.164;2023-10-19T18:35:58;2.70;;;2.60;;
7747;SDS011;3918;42.564;23.164;2023-10-19T18:38:27;2.60;;;2.15;;
7747;SDS011;3918;42.564;23.164;2023-10-19T18:40:56;3.17;;;2.72;;
7747;SDS011;3918;42.564;23.164;2023-10-19T18:43:25;2.30;;;2.20;;
7747;SDS011;3918;42.564;23.164;2023-10-19T18:45:53;2.90;;;2.70;;
7747;SDS011;3918;42.564;23.164;2023-10-19T18:48:20;2.50;;;2.40;;
7747;SDS011;3918;42.564;23.164;2023-10-19T18:50:55;2.28;;;2.17;;
7747;SDS011;3918;42.564;23.164;2023-10-19T18:53:23;2.38;;;2.08;;
7747;SDS011;3918;42.564;23.164;2023-10-19T18:55:51;2.70;;;2.30;;
7747;SDS011;3918;42.564;23.164;2023-10-19T18:58:20;3.25;;;2.72;;
7747;SDS011;3918;42.564;23.164;2023-10-19T19:00:52;3.00;;;2.80;;
